TAFOR
Diposting tanggal: 30 Agustus 2018

Pukul : 00 - 12 UTC

Isi :

TAF WAGI 212300Z 2200/2212 31006KT 9000 SCT012 TEMPO 2206/2208 4000 -RA FEW012CB BKN012=